Rochester, NY

12:30 PM EDT on May 30, 2015 (GMT -0400)
Dansville Municipal | | Change Station
CLOSE
Current Station
Airport
Location: Dansville,
Elevation: 659 ft
Nearby Weather Stations

Elev 659 ft 42.57 °N, 77.71 °W | Updated 36 minutes ago

Overcast
Overcast
83 °F
Feels Like 84 °F
N
8
Wind Variable Wind from SW

Today
High -- | Low -- °F
--% Chance of Precip.
Yesterday
High -- | Low -- °F
Precip. -- in
5:34 AM 8:41 PM
Waxing Gibbous, 91% visible
Pressure 30.05 in
Visibility 10.0 miles
Clouds Few 5000 ft
Mostly Cloudy 8000 ft
Heat Index 84 °F
Dew Point 64 °F
Humidity 53%
Rainfall 0.00 in
Snow Depth Not available.
UV 6 out of 12
Pollen 6.20 out of 12
Air Quality Not available.
Flu Activity Sporadic
METAR KDSV 301554Z AUTO 22007KT 10SM FEW050 BKN080 28/18 A3004 RMK AO2 SLP175 T02830178

More Conditions Fewer Conditions

Pressure 30.05 in
Visibility 10.0 miles
Clouds Few 5000 ft
Mostly Cloudy 8000 ft
Heat Index 84 °F
Dew Point 64 °F
Humidity 53%
Rainfall 0.00 in
Snow Depth Not available.
UV 6 out of 12
Pollen 6.20 out of 12
Air Quality Not available.
Flu Activity Sporadic
METAR KDSV 301554Z AUTO 22007KT 10SM FEW050 BKN080 28/18 A3004 RMK AO2 SLP175 T02830178

More Conditions Fewer Conditions

10-Day Weather Forecast

Almanac

Astronomy

May. 30, 2015 Rise Set
Actual Time
Civil Twilight
Nautical Twilight
Astronomical Twilight
Moon
Length of Visible Light
Length of Day
Tomorrow will be .
, % of the Moon is Illuminated

Today's Extremes

State Highs State Lows

Community

WunderPhotos

Upload Photos

1,825,563 photos uploaded!

WunderBlogs® & News

Nearby

Air Quality

  Air Quality AQ Index Pollutant
Not available.

Snow Depth

Station Depth Elevation

Earthquake Activity

City Distance Mag. Time & Date
Minimum magnitude displayed is 2.5.

Coastal Water Temperatures

Place Temperature

Stations

Nearby Weather Stations

Station Location Temp. Windchill Dew Point Humidity Wind Precip. Elev Updated Type